KAVP/AVP METAR and TAF weather

Enter ICAO airport designator
Station Type Date Time Source
KAVP METAR 2019/08/25 18:54 UTC NOAA

KAVP 251854Z 11005KT 10SM FEW048 BKN065 22/11 A3024 RMK AO2 SLP236 T02220111


Station Type Date Time Source
KAVP Decoded METAR 2019/08/25 18:54 UTC NOAA

Station name not available
Aug 25, 2019 - 02:54 PM EDT / 2019.08.25 1854 UTC
Wind: from the ESE (110 degrees) at 6 MPH (5 KT):0
Visibility: 10 mile(s):0
Sky conditions: mostly cloudy
Temperature: 72.0 F (22.2 C)
Dew Point: 52.0 F (11.1 C)
Relative Humidity: 49%
Pressure (altimeter): 30.24 in. Hg (1024 hPa)
ob: KAVP 251854Z 11005KT 10SM FEW048 BKN065 22/11 A3024 RMK AO2 SLP236 T02220111
cycle: 19

Station Type Date Time Source
KAVP TAF 2019/08/25 18:36 UTC NOAA

TAF KAVP 251733Z 2518/2618 05009KT P6SM BKN050
FM252300 VRB03KT P6SM SKC

Example: see airport list